createdAt,value
2022-11-22T00:02:03.956Z,66.12
2022-11-22T00:04:34.954Z,66.21
2022-11-22T00:07:05.977Z,66.33
2022-11-22T00:09:36.961Z,66.36
2022-11-22T00:12:08.071Z,66.54
2022-11-22T00:14:39.036Z,66.44
2022-11-22T00:17:09.988Z,66.89
2022-11-22T00:19:41.748Z,66.53
2022-11-22T00:22:13.003Z,66.46
2022-11-22T00:24:46.367Z,66.88
2022-11-22T00:27:17.392Z,66.61
2022-11-22T00:29:48.387Z,66.54
2022-11-22T00:32:19.752Z,66.25
2022-11-22T00:34:51.178Z,66.13
2022-11-22T00:37:22.151Z,66.37
2022-11-22T00:39:53.112Z,66.53
2022-11-22T00:42:24.224Z,66.34
2022-11-22T00:44:55.178Z,66.53
2022-11-22T00:47:26.182Z,66.26
2022-11-22T00:49:57.154Z,66.33
2022-11-22T00:52:28.105Z,66.53
2022-11-22T00:54:59.067Z,66.63
2022-11-22T00:57:30.059Z,66.60
2022-11-22T01:00:01.053Z,66.33
2022-11-22T01:02:32.033Z,66.69
2022-11-22T01:05:02.989Z,66.66
2022-11-22T01:07:34.023Z,66.92
2022-11-22T01:10:05.545Z,66.78
2022-11-22T01:12:36.625Z,66.84
2022-11-22T01:15:09.028Z,66.67
2022-11-22T01:17:40.125Z,66.76
2022-11-22T01:20:13.136Z,66.56
2022-11-22T01:22:44.097Z,66.61
2022-11-22T01:25:15.318Z,66.43
2022-11-22T01:27:46.364Z,66.74
2022-11-22T01:30:18.525Z,66.65
2022-11-22T01:32:49.473Z,66.94
2022-11-22T01:35:20.719Z,66.65
2022-11-22T01:37:51.670Z,66.88
2022-11-22T01:40:22.727Z,66.84
2022-11-22T01:42:56.629Z,66.93
2022-11-22T01:45:51.993Z,66.61
2022-11-22T01:48:31.858Z,66.79
2022-11-22T01:51:08.213Z,66.97
2022-11-22T01:53:41.843Z,66.92
2022-11-22T01:56:17.053Z,66.92
2022-11-22T01:58:52.282Z,66.78
2022-11-22T02:01:23.596Z,67.11
2022-11-22T02:03:57.560Z,67.33
2022-11-22T02:06:35.306Z,67.19
2022-11-22T02:09:11.711Z,66.87
2022-11-22T02:11:47.305Z,66.87
2022-11-22T02:14:20.537Z,66.56
2022-11-22T02:16:51.696Z,66.40
2022-11-22T02:19:30.719Z,66.81
2022-11-22T02:22:10.366Z,66.58
2022-11-22T02:24:47.856Z,66.86
2022-11-22T02:27:19.246Z,66.63
2022-11-22T02:29:52.598Z,66.59
2022-11-22T02:32:23.881Z,66.92
2022-11-22T02:34:54.939Z,67.03
2022-11-22T02:37:29.847Z,67.02
2022-11-22T02:40:06.236Z,67.21
2022-11-22T02:42:38.584Z,66.89
2022-11-22T02:45:10.961Z,67.21
2022-11-22T02:47:41.896Z,66.95
2022-11-22T02:50:13.090Z,66.96
2022-11-22T02:52:44.013Z,66.99
2022-11-22T02:55:15.150Z,67.00
2022-11-22T02:57:46.118Z,66.99
2022-11-22T03:00:18.794Z,67.26
2022-11-22T03:02:53.385Z,67.47
2022-11-22T03:05:27.299Z,67.62
2022-11-22T03:07:58.372Z,67.84
2022-11-22T03:10:29.468Z,67.85
2022-11-22T03:13:00.824Z,67.88
2022-11-22T03:15:32.007Z,67.75
2022-11-22T03:18:04.954Z,67.42
2022-11-22T03:20:36.831Z,67.14
2022-11-22T03:23:07.800Z,67.43
2022-11-22T03:25:41.093Z,67.28
2022-11-22T03:28:12.223Z,66.99
2022-11-22T03:30:44.052Z,67.12
2022-11-22T03:33:15.122Z,67.58
2022-11-22T03:35:46.278Z,67.70
2022-11-22T03:38:17.251Z,67.43
2022-11-22T03:40:50.006Z,67.66
2022-11-22T03:43:21.220Z,67.61
2022-11-22T03:45:52.137Z,67.32
2022-11-22T03:48:23.102Z,67.46
2022-11-22T03:50:54.597Z,67.57
2022-11-22T03:53:25.578Z,67.45
2022-11-22T03:55:56.576Z,67.51
2022-11-22T03:58:27.607Z,67.43
2022-11-22T04:00:58.855Z,67.18
2022-11-22T04:03:29.969Z,67.45
2022-11-22T04:06:01.122Z,67.48
2022-11-22T04:08:32.296Z,67.56
2022-11-22T04:11:03.404Z,67.69
2022-11-22T04:13:48.297Z,67.61
2022-11-22T04:16:19.441Z,67.62
2022-11-22T04:18:50.378Z,67.68
2022-11-22T04:21:36.357Z,67.65
2022-11-22T04:24:27.136Z,67.76
2022-11-22T04:26:58.799Z,67.81
2022-11-22T04:29:30.670Z,68.11
2022-11-22T04:32:19.339Z,68.05
2022-11-22T04:34:50.376Z,67.86
2022-11-22T04:37:21.379Z,67.88
2022-11-22T04:39:52.457Z,68.10
2022-11-22T04:42:40.893Z,67.87
2022-11-22T04:45:13.358Z,68.27
2022-11-22T04:48:02.959Z,67.96
2022-11-22T04:50:52.361Z,68.16
2022-11-22T04:53:23.277Z,68.00
2022-11-22T04:55:54.734Z,67.89
2022-11-22T04:58:26.243Z,68.06
2022-11-22T05:00:57.317Z,68.37
2022-11-22T05:03:28.703Z,67.86
2022-11-22T05:06:03.943Z,67.68
2022-11-22T05:08:35.493Z,68.00
2022-11-22T05:11:06.588Z,68.14
2022-11-22T05:13:39.626Z,68.28
2022-11-22T05:16:12.920Z,67.91
2022-11-22T05:18:59.076Z,67.94
2022-11-22T05:21:30.955Z,67.92
2022-11-22T05:24:02.178Z,68.09
2022-11-22T05:26:35.634Z,67.91
2022-11-22T05:29:09.206Z,67.99
2022-11-22T05:31:45.705Z,68.16
2022-11-22T05:34:20.918Z,68.13
2022-11-22T05:36:51.941Z,68.32
2022-11-22T05:39:23.134Z,68.45
2022-11-22T05:41:57.193Z,68.54
2022-11-22T05:44:28.291Z,68.69
2022-11-22T05:47:01.845Z,68.46
2022-11-22T05:49:33.465Z,68.57
2022-11-22T05:52:04.773Z,68.29
2022-11-22T05:54:35.735Z,68.01
2022-11-22T05:57:06.983Z,67.84
2022-11-22T05:59:43.763Z,67.74
2022-11-22T06:02:15.204Z,67.72
2022-11-22T06:04:46.238Z,68.10
2022-11-22T06:07:17.355Z,68.11
2022-11-22T06:09:48.293Z,68.41
2022-11-22T06:12:19.301Z,68.88
2022-11-22T06:14:50.320Z,68.85
2022-11-22T06:17:21.367Z,68.71
2022-11-22T06:19:52.467Z,68.71
2022-11-22T06:22:23.418Z,68.76
2022-11-22T06:24:55.228Z,68.19
2022-11-22T06:27:26.280Z,67.86
2022-11-22T06:29:57.340Z,68.25
2022-11-22T06:32:28.763Z,68.12
2022-11-22T06:35:01.119Z,68.51
2022-11-22T06:37:32.641Z,68.67
2022-11-22T06:40:03.809Z,69.01
2022-11-22T06:42:35.947Z,69.30
2022-11-22T06:45:13.320Z,69.44
2022-11-22T06:47:45.617Z,69.19
2022-11-22T06:50:21.597Z,68.91
2022-11-22T06:52:57.908Z,69.03
2022-11-22T06:55:49.609Z,68.54
2022-11-22T06:58:20.901Z,68.67
2022-11-22T07:00:52.188Z,68.63
2022-11-22T07:03:23.243Z,68.51
2022-11-22T07:05:54.811Z,68.98
2022-11-22T07:08:28.532Z,69.35
2022-11-22T07:11:04.689Z,69.21
2022-11-22T07:13:36.713Z,68.88
2022-11-22T07:16:10.309Z,68.72
2022-11-22T07:18:42.160Z,68.61
2022-11-22T07:21:15.555Z,68.75
2022-11-22T07:23:49.445Z,68.66
2022-11-22T07:26:44.629Z,68.79
2022-11-22T07:29:15.713Z,68.70
2022-11-22T07:31:48.900Z,68.93
2022-11-22T07:34:22.442Z,68.90
2022-11-22T07:36:58.740Z,68.66
2022-11-22T07:39:33.285Z,68.67
2022-11-22T07:42:04.565Z,68.49
2022-11-22T07:44:35.404Z,68.53
2022-11-22T07:47:06.665Z,68.68
2022-11-22T07:49:38.823Z,68.62
2022-11-22T07:52:11.233Z,68.48
2022-11-22T07:54:42.603Z,68.80
2022-11-22T07:57:14.094Z,68.64
2022-11-22T07:59:45.274Z,68.77
2022-11-22T08:02:18.820Z,68.88
2022-11-22T08:04:55.144Z,68.48
2022-11-22T08:07:27.850Z,68.67
2022-11-22T08:09:59.057Z,68.14
2022-11-22T08:12:30.095Z,68.09
2022-11-22T08:15:02.226Z,68.15
2022-11-22T08:17:33.048Z,67.70
2022-11-22T08:20:05.569Z,68.12
2022-11-22T08:22:39.235Z,68.24
2022-11-22T08:25:14.121Z,68.11
2022-11-22T08:27:46.391Z,68.31
2022-11-22T08:30:22.259Z,68.10
2022-11-22T08:32:59.138Z,68.54
2022-11-22T08:35:30.177Z,68.31
2022-11-22T08:38:01.754Z,68.16
2022-11-22T08:41:14.111Z,68.18
2022-11-22T08:43:45.952Z,68.22
2022-11-22T08:46:18.546Z,68.01
2022-11-22T08:48:53.324Z,68.01
2022-11-22T08:51:24.579Z,68.10
2022-11-22T08:53:58.383Z,68.04
2022-11-22T08:56:30.251Z,68.14
2022-11-22T08:59:01.617Z,68.38
2022-11-22T09:01:33.456Z,68.14
2022-11-22T09:04:04.807Z,67.71
2022-11-22T09:09:37.368Z,67.87
2022-11-22T09:12:10.303Z,67.83
2022-11-22T09:14:42.026Z,68.34
2022-11-22T09:17:17.929Z,67.84
2022-11-22T09:19:49.445Z,67.95
2022-11-22T09:22:24.027Z,67.75
2022-11-22T09:24:59.010Z,67.90
2022-11-22T09:27:33.181Z,67.85
2022-11-22T09:30:05.715Z,67.79
2022-11-22T09:32:36.819Z,68.00
2022-11-22T09:35:09.855Z,67.83
2022-11-22T09:37:41.424Z,68.09
2022-11-22T09:40:20.118Z,67.91
2022-11-22T09:43:38.081Z,67.82
2022-11-22T09:46:35.678Z,67.98
2022-11-22T09:49:29.848Z,67.82
2022-11-22T09:52:09.114Z,68.03
2022-11-22T09:54:47.911Z,68.04
2022-11-22T09:57:26.979Z,67.84
2022-11-22T10:00:06.523Z,67.77
2022-11-22T10:03:00.299Z,67.45
2022-11-22T10:05:41.362Z,67.74
2022-11-22T10:08:22.444Z,68.01
2022-11-22T10:10:58.000Z,67.93
2022-11-22T10:13:37.261Z,67.76
2022-11-22T10:16:15.826Z,67.68
2022-11-22T10:18:55.064Z,67.54
2022-11-22T10:21:27.285Z,67.47
2022-11-22T10:23:58.480Z,67.34
2022-11-22T10:26:32.932Z,67.23
2022-11-22T10:29:16.201Z,67.84
2022-11-22T10:31:58.023Z,67.55
2022-11-22T10:34:49.785Z,68.01
2022-11-22T10:37:33.610Z,68.04
2022-11-22T10:40:14.224Z,67.80
2022-11-22T10:43:00.121Z,67.35
2022-11-22T10:45:36.454Z,67.66
2022-11-22T10:48:22.202Z,67.77
2022-11-22T10:50:55.606Z,67.55
2022-11-22T10:53:38.401Z,67.51
2022-11-22T10:56:16.729Z,67.52
2022-11-22T10:58:58.231Z,67.45
2022-11-22T11:01:37.195Z,67.42
2022-11-22T11:04:11.130Z,67.24
2022-11-22T11:12:41.918Z,67.05
2022-11-22T11:15:22.287Z,66.87
2022-11-22T11:17:59.859Z,66.20
2022-11-22T11:20:36.538Z,66.73
2022-11-22T11:23:14.693Z,66.28
2022-11-22T11:25:47.602Z,66.39
2022-11-22T11:28:22.784Z,66.32
2022-11-22T11:30:56.487Z,66.43
2022-11-22T11:33:33.542Z,66.12
2022-11-22T11:36:11.956Z,65.96
2022-11-22T11:38:54.344Z,66.01
2022-11-22T11:41:29.676Z,66.22
2022-11-22T11:44:04.364Z,65.98
2022-11-22T11:46:49.267Z,65.79
2022-11-22T11:49:22.608Z,65.76
2022-11-22T11:51:58.627Z,65.49
2022-11-22T11:54:44.237Z,65.44
2022-11-22T11:57:20.205Z,65.07
2022-11-22T11:59:53.407Z,65.20
2022-11-22T12:02:26.354Z,65.06
2022-11-22T12:05:01.042Z,65.00
2022-11-22T12:07:43.772Z,64.89
2022-11-22T12:10:41.737Z,64.73
2022-11-22T12:13:22.179Z,64.97
2022-11-22T12:15:59.268Z,65.40
2022-11-22T12:18:42.121Z,65.22
2022-11-22T12:21:25.178Z,65.34
2022-11-22T12:24:26.952Z,64.88
2022-11-22T12:26:55.262Z,65.47
2022-11-22T12:29:26.684Z,65.85
2022-11-22T12:32:03.275Z,65.88
2022-11-22T12:34:39.014Z,65.87
2022-11-22T12:37:16.327Z,65.90
2022-11-22T12:39:50.507Z,65.51
2022-11-22T12:42:25.361Z,65.76
2022-11-22T12:45:02.554Z,65.64
2022-11-22T12:47:39.028Z,65.81
2022-11-22T12:50:21.925Z,65.86
2022-11-22T12:52:58.110Z,65.65
2022-11-22T12:55:32.735Z,66.01
2022-11-22T12:58:16.786Z,65.60
2022-11-22T13:01:01.980Z,65.67
2022-11-22T13:03:40.234Z,65.61
2022-11-22T13:06:12.130Z,65.92
2022-11-22T13:08:54.615Z,66.15
2022-11-22T13:11:32.371Z,66.05
2022-11-22T13:14:17.743Z,65.98
2022-11-22T13:16:52.574Z,66.10
2022-11-22T13:19:27.106Z,66.20
2022-11-22T13:22:14.986Z,66.03
2022-11-22T13:25:09.920Z,65.99
2022-11-22T13:27:45.692Z,65.65
2022-11-22T13:30:23.476Z,65.73
2022-11-22T13:32:56.960Z,65.77
2022-11-22T13:35:32.990Z,66.03
2022-11-22T13:38:06.441Z,65.67
2022-11-22T13:40:43.028Z,65.66
2022-11-22T13:43:53.266Z,65.80
2022-11-22T13:46:53.397Z,66.05
2022-11-22T13:49:39.170Z,66.27
2022-11-22T13:52:45.057Z,66.11
2022-11-22T13:55:42.445Z,66.22
2022-11-22T13:58:54.713Z,66.29
2022-11-22T14:01:58.338Z,66.06
2022-11-22T14:04:39.174Z,66.40
2022-11-22T14:07:30.062Z,66.39
2022-11-22T14:10:03.442Z,66.11
2022-11-22T14:12:49.393Z,66.51
2022-11-22T14:15:50.213Z,66.20
2022-11-22T14:18:41.034Z,66.35
2022-11-22T14:21:16.383Z,66.56
2022-11-22T14:23:51.726Z,66.33
2022-11-22T14:26:34.888Z,66.38
2022-11-22T14:29:54.313Z,66.81
2022-11-22T14:32:27.492Z,66.93
2022-11-22T14:35:30.456Z,66.76
2022-11-22T14:38:21.560Z,66.74
2022-11-22T14:40:53.073Z,67.01
2022-11-22T14:43:35.069Z,66.84
2022-11-22T14:46:37.317Z,67.00
2022-11-22T14:49:12.065Z,67.24
2022-11-22T14:51:43.451Z,67.13
2022-11-22T14:54:23.352Z,67.50
2022-11-22T14:57:03.966Z,67.41
2022-11-22T15:00:04.582Z,67.23
2022-11-22T15:03:08.918Z,67.60
2022-11-22T15:09:18.391Z,67.57
2022-11-22T15:09:33.448Z,67.59
2022-11-22T15:12:16.656Z,67.72
2022-11-22T15:57:32.077Z,68.57
2022-11-22T16:00:10.125Z,68.54
2022-11-22T16:02:51.217Z,68.67
2022-11-22T16:06:06.188Z,68.75
2022-11-22T16:08:27.825Z,68.83
2022-11-22T16:11:05.222Z,68.98
2022-11-22T16:13:38.542Z,68.94
2022-11-22T16:16:27.897Z,68.92
2022-11-22T16:21:59.375Z,69.38
2022-11-22T16:24:31.914Z,69.31
2022-11-22T16:27:06.143Z,69.40
2022-11-22T16:29:38.600Z,69.54
2022-11-22T16:32:14.783Z,69.62
2022-11-22T16:34:47.045Z,69.57
2022-11-22T16:37:36.427Z,69.59
2022-11-22T16:40:14.043Z,69.40
2022-11-22T16:42:45.289Z,69.51
2022-11-22T16:45:20.123Z,69.49
2022-11-22T16:48:03.848Z,69.53
2022-11-22T16:50:43.620Z,69.78
2022-11-22T16:53:17.081Z,69.88
2022-11-22T16:55:49.501Z,70.09
2022-11-22T16:58:25.098Z,70.32
2022-11-22T17:00:57.063Z,70.64
2022-11-22T17:03:31.871Z,70.54
2022-11-22T17:06:03.943Z,70.42
2022-11-22T17:08:34.932Z,70.52
2022-11-22T17:11:05.931Z,70.34
2022-11-22T17:13:37.242Z,70.64
2022-11-22T17:16:10.715Z,70.73
2022-11-22T17:18:42.290Z,70.67
2022-11-22T17:21:19.380Z,70.72
2022-11-22T17:23:51.425Z,71.03
2022-11-22T17:26:22.786Z,71.07
2022-11-22T17:28:54.376Z,71.20
2022-11-22T17:31:28.769Z,71.00
2022-11-22T17:34:00.797Z,70.90
2022-11-22T17:36:33.302Z,71.11
2022-11-22T17:39:07.013Z,71.32
2022-11-22T17:41:38.699Z,71.47
2022-11-22T17:44:15.956Z,71.48
2022-11-22T17:46:47.717Z,71.43
2022-11-22T17:49:18.748Z,71.46
2022-11-22T17:51:51.039Z,71.50
2022-11-22T17:54:22.097Z,71.44
2022-11-22T17:56:53.319Z,71.61
2022-11-22T17:59:25.469Z,71.68
2022-11-22T18:01:56.445Z,71.56
2022-11-22T18:04:27.799Z,71.92
2022-11-22T18:06:59.031Z,71.90
2022-11-22T18:09:30.378Z,71.93
2022-11-22T18:12:01.929Z,71.81
2022-11-22T18:14:34.819Z,71.74
2022-11-22T18:17:06.269Z,71.83
2022-11-22T18:19:37.136Z,71.79
2022-11-22T18:22:08.099Z,71.97
2022-11-22T18:24:40.479Z,72.13
2022-11-22T18:27:20.327Z,72.29
2022-11-22T18:29:55.674Z,72.29
2022-11-22T18:32:27.133Z,72.09
2022-11-22T18:34:58.303Z,71.99
2022-11-22T18:37:29.659Z,71.91
2022-11-22T18:40:00.921Z,72.06
2022-11-22T18:42:32.411Z,72.00
2022-11-22T18:45:08.803Z,72.06
2022-11-22T18:47:39.891Z,72.27
2022-11-22T18:50:16.376Z,72.44
2022-11-22T18:52:47.544Z,72.61
2022-11-22T18:55:22.968Z,72.25
2022-11-22T18:57:54.581Z,72.24
2022-11-22T19:00:26.678Z,72.21
2022-11-22T19:02:58.866Z,72.00
2022-11-22T19:05:30.059Z,72.17
2022-11-22T19:08:01.078Z,72.39
2022-11-22T19:10:32.008Z,72.48
2022-11-22T19:13:03.039Z,72.55
2022-11-22T19:15:33.933Z,72.67
2022-11-22T19:18:05.071Z,72.48
2022-11-22T19:20:54.500Z,72.42
2022-11-22T19:23:26.487Z,72.49
2022-11-22T19:25:57.706Z,72.46
2022-11-22T19:28:30.471Z,72.40
2022-11-22T19:31:07.751Z,72.54
2022-11-22T19:33:39.086Z,72.45
2022-11-22T19:36:14.437Z,72.47
2022-11-22T19:38:44.129Z,72.20
2022-11-22T19:41:17.887Z,72.45
2022-11-22T19:43:49.928Z,72.35
2022-11-22T19:46:21.478Z,72.46
2022-11-22T19:48:55.209Z,72.48
2022-11-22T19:51:27.674Z,72.56
2022-11-22T19:54:02.057Z,72.67
2022-11-22T19:56:35.538Z,72.84
2022-11-22T19:59:09.924Z,72.86
2022-11-22T20:01:40.968Z,72.69
2022-11-22T20:04:15.311Z,72.68
2022-11-22T20:06:50.119Z,72.81
2022-11-22T20:09:22.461Z,73.01
2022-11-22T20:11:53.613Z,72.86
2022-11-22T20:14:24.927Z,72.81
2022-11-22T20:16:55.852Z,72.93
2022-11-22T20:19:31.149Z,72.66
2022-11-22T20:22:04.982Z,72.45
2022-11-22T20:24:36.100Z,72.78
2022-11-22T20:27:09.320Z,72.98
2022-11-22T20:29:40.298Z,72.59
2022-11-22T20:32:12.378Z,72.69
2022-11-22T20:34:43.895Z,72.44
2022-11-22T20:37:15.221Z,72.60
2022-11-22T20:39:47.319Z,72.48
2022-11-22T20:42:34.837Z,72.53
2022-11-22T20:45:10.701Z,72.58
2022-11-22T20:47:47.774Z,72.52
2022-11-22T20:50:20.958Z,72.58
2022-11-22T20:52:52.177Z,72.56
2022-11-22T20:55:23.102Z,72.67
2022-11-22T20:57:54.223Z,72.83
2022-11-22T21:00:25.557Z,72.84
2022-11-22T21:02:56.676Z,72.65
2022-11-22T21:05:28.627Z,73.04
2022-11-22T21:08:05.037Z,72.81
2022-11-22T21:10:36.750Z,72.83
2022-11-22T21:13:07.947Z,72.91
2022-11-22T21:15:41.504Z,72.97
2022-11-22T21:18:28.625Z,73.19
2022-11-22T21:21:04.662Z,73.24
2022-11-22T21:23:36.628Z,72.98
2022-11-22T21:26:09.060Z,73.12
2022-11-22T21:28:45.149Z,73.17
2022-11-22T21:31:17.165Z,72.95
2022-11-22T21:33:52.730Z,72.95
2022-11-22T21:36:24.376Z,73.08
2022-11-22T21:38:55.330Z,72.78
2022-11-22T21:41:41.969Z,72.75
2022-11-22T21:44:14.105Z,72.93
2022-11-22T21:46:45.265Z,73.31
2022-11-22T21:49:16.258Z,73.19
2022-11-22T21:51:48.378Z,73.20
2022-11-22T21:54:19.408Z,72.99
2022-11-22T21:56:50.426Z,73.34
2022-11-22T21:59:21.679Z,73.40
2022-11-22T22:01:53.266Z,73.60
2022-11-22T22:04:24.546Z,73.39
2022-11-22T22:06:55.782Z,73.21
2022-11-22T22:09:26.789Z,73.21
2022-11-22T22:11:58.074Z,73.16
2022-11-22T22:14:29.830Z,73.01
2022-11-22T22:17:01.077Z,73.20
2022-11-22T22:19:33.087Z,73.16
2022-11-22T22:22:04.234Z,73.37
2022-11-22T22:24:35.144Z,73.49
2022-11-22T22:27:07.235Z,73.70
2022-11-22T22:29:38.353Z,73.62
2022-11-22T22:32:10.772Z,73.56
2022-11-22T22:34:41.883Z,73.58
2022-11-22T22:37:12.940Z,73.49
2022-11-22T22:39:43.970Z,73.59
2022-11-22T22:42:15.404Z,73.36
2022-11-22T22:44:46.459Z,73.12
2022-11-22T22:47:17.606Z,73.08
2022-11-22T22:49:48.421Z,73.04
2022-11-22T22:52:19.793Z,73.13
2022-11-22T22:54:50.725Z,73.13
2022-11-22T22:57:21.592Z,73.19
2022-11-22T22:59:53.225Z,73.00
2022-11-22T23:02:24.174Z,73.24
2022-11-22T23:04:55.030Z,73.18
2022-11-22T23:07:25.837Z,73.18
2022-11-22T23:09:56.733Z,73.27
2022-11-22T23:12:27.730Z,73.35
2022-11-22T23:14:58.716Z,73.25
2022-11-22T23:17:29.662Z,73.44
2022-11-22T23:20:00.900Z,73.60
2022-11-22T23:22:31.796Z,73.47
2022-11-22T23:25:02.646Z,73.48
2022-11-22T23:27:33.484Z,73.50
2022-11-22T23:30:05.144Z,73.39
2022-11-22T23:32:36.184Z,73.35
2022-11-22T23:35:08.427Z,73.36
2022-11-22T23:37:39.229Z,73.16
2022-11-22T23:40:12.641Z,73.21
2022-11-22T23:42:43.392Z,73.49
2022-11-22T23:45:14.555Z,73.41
2022-11-22T23:47:45.708Z,73.40
2022-11-22T23:50:17.763Z,73.60
2022-11-22T23:52:48.640Z,73.46
2022-11-22T23:55:19.659Z,73.60
2022-11-22T23:57:50.532Z,73.51
